createdAt,value
2022-10-22T00:02:33.954Z,75.13
2022-10-22T00:07:37.699Z,75.20
2022-10-22T00:12:41.322Z,75.18
2022-10-22T00:17:46.107Z,75.56
2022-10-22T00:22:53.223Z,75.19
2022-10-22T00:27:56.992Z,74.46
2022-10-22T00:33:01.778Z,75.17
2022-10-22T00:38:05.720Z,75.42
2022-10-22T00:43:12.417Z,75.49
2022-10-22T00:48:21.055Z,75.92
2022-10-22T00:53:27.900Z,75.47
2022-10-22T00:58:34.728Z,75.74
2022-10-22T01:03:39.614Z,76.21
2022-10-22T01:08:51.785Z,76.82
2022-10-22T01:14:04.399Z,77.17
2022-10-22T01:19:27.116Z,77.00
2022-10-22T01:24:39.793Z,77.66
2022-10-22T01:29:49.551Z,78.22
2022-10-22T01:34:56.591Z,78.64
2022-10-22T01:40:02.100Z,79.23
2022-10-22T01:45:14.468Z,78.86
2022-10-22T01:50:36.208Z,78.62
2022-10-22T01:55:49.925Z,78.95
2022-10-22T02:01:01.648Z,79.20
2022-10-22T02:06:15.384Z,79.49
2022-10-22T02:11:19.436Z,79.28
2022-10-22T02:16:30.630Z,78.44
2022-10-22T02:21:34.148Z,78.08
2022-10-22T02:26:41.832Z,77.52
2022-10-22T02:31:49.385Z,77.56
2022-10-22T02:36:54.332Z,76.60
2022-10-22T02:41:58.166Z,76.11
2022-10-22T02:47:02.932Z,76.07
2022-10-22T02:52:06.570Z,75.74
2022-10-22T02:57:10.274Z,75.91
2022-10-22T03:02:21.292Z,75.52
2022-10-22T03:07:24.816Z,75.23
2022-10-22T03:12:28.319Z,73.87
2022-10-22T03:17:33.023Z,72.57
2022-10-22T03:22:38.219Z,72.57
2022-10-22T03:27:43.523Z,72.16
2022-10-22T03:32:48.512Z,71.52
2022-10-22T03:37:52.559Z,71.35
2022-10-22T03:42:56.074Z,70.95
2022-10-22T03:48:01.095Z,71.10
2022-10-22T03:53:05.367Z,71.16
2022-10-22T03:58:09.054Z,70.58
2022-10-22T04:03:13.843Z,70.66
2022-10-22T04:08:17.184Z,70.19
2022-10-22T04:13:20.535Z,70.23
2022-10-22T04:18:25.344Z,70.20
2022-10-22T04:23:28.668Z,70.14
2022-10-22T04:28:32.124Z,70.02
2022-10-22T04:33:37.048Z,70.24
2022-10-22T04:38:41.018Z,70.09
2022-10-22T04:43:44.961Z,69.97
2022-10-22T04:48:50.119Z,70.14
2022-10-22T04:53:53.499Z,69.85
2022-10-22T04:58:59.120Z,69.77
2022-10-22T05:04:05.407Z,69.69
2022-10-22T05:09:13.158Z,69.19
2022-10-22T05:14:18.087Z,68.83
2022-10-22T05:19:25.390Z,68.00
2022-10-22T05:24:29.917Z,67.94
2022-10-22T05:29:33.249Z,68.01
2022-10-22T05:34:38.643Z,67.63
2022-10-22T05:39:42.008Z,67.05
2022-10-22T05:44:45.374Z,67.10
2022-10-22T05:49:50.224Z,66.92
2022-10-22T05:54:53.552Z,66.07
2022-10-22T05:59:57.083Z,66.29
2022-10-22T06:05:01.804Z,65.44
2022-10-22T06:10:06.734Z,64.46
2022-10-22T06:15:11.601Z,64.38
2022-10-22T06:20:16.556Z,64.30
2022-10-22T06:25:20.224Z,63.85
2022-10-22T06:30:23.626Z,63.14
2022-10-22T06:35:28.480Z,63.11
2022-10-22T06:40:32.476Z,62.36
2022-10-22T06:45:35.910Z,61.30
2022-10-22T06:50:40.934Z,60.56
2022-10-22T06:55:44.361Z,59.39
2022-10-22T07:00:48.099Z,59.42
2022-10-22T07:05:53.109Z,60.09
2022-10-22T07:10:56.721Z,59.54
2022-10-22T07:16:00.093Z,59.20
2022-10-22T07:21:05.941Z,59.06
2022-10-22T07:26:11.042Z,58.41
2022-10-22T07:31:16.127Z,58.13
2022-10-22T07:36:20.916Z,57.66
2022-10-22T07:41:24.928Z,58.29
2022-10-22T07:46:28.491Z,57.77
2022-10-22T07:51:33.284Z,56.81
2022-10-22T07:56:36.758Z,56.64
2022-10-22T08:01:40.113Z,56.24
2022-10-22T08:06:47.226Z,55.13
2022-10-22T08:11:50.779Z,54.09
2022-10-22T08:16:54.118Z,54.31
2022-10-22T08:21:58.967Z,54.47
2022-10-22T08:27:02.624Z,54.34
2022-10-22T08:32:06.641Z,53.94
2022-10-22T08:37:17.574Z,52.94
2022-10-22T08:42:51.557Z,52.61
2022-10-22T08:48:09.733Z,52.34
2022-10-22T08:53:19.547Z,51.97
2022-10-22T08:58:28.921Z,51.03
2022-10-22T09:03:39.204Z,52.20
2022-10-22T09:08:45.366Z,51.54
2022-10-22T09:13:50.702Z,51.97
2022-10-22T09:19:11.171Z,52.28
2022-10-22T09:24:23.307Z,52.10
2022-10-22T09:29:34.573Z,52.74
2022-10-22T09:34:38.129Z,52.59
2022-10-22T09:39:46.661Z,51.94
2022-10-22T09:44:54.355Z,51.59
2022-10-22T09:50:17.856Z,51.00
2022-10-22T09:55:25.581Z,51.64
2022-10-22T10:00:29.257Z,51.90
2022-10-22T10:05:34.434Z,51.46
2022-10-22T10:10:46.790Z,50.92
2022-10-22T10:15:56.649Z,51.00
2022-10-22T10:21:07.069Z,51.36
2022-10-22T10:26:20.227Z,50.94
2022-10-22T10:31:38.402Z,50.46
2022-10-22T10:36:52.991Z,49.15
2022-10-22T10:42:10.273Z,49.25
2022-10-22T10:47:31.524Z,49.70
2022-10-22T10:52:43.550Z,48.81
2022-10-22T10:58:00.874Z,48.21
2022-10-22T11:03:45.568Z,48.24
2022-10-22T11:08:55.998Z,48.57
2022-10-22T11:14:06.878Z,48.12
2022-10-22T11:19:22.681Z,48.45
2022-10-22T11:24:29.747Z,48.49
2022-10-22T11:29:39.236Z,50.83
2022-10-22T11:34:48.913Z,51.77
2022-10-22T11:39:55.462Z,50.60
2022-10-22T11:45:06.389Z,52.44
2022-10-22T11:50:21.774Z,51.82
2022-10-22T11:55:46.079Z,51.31
2022-10-22T12:00:51.680Z,53.15
2022-10-22T12:06:20.887Z,52.24
2022-10-22T12:11:27.176Z,51.88
2022-10-22T12:16:55.062Z,49.53
2022-10-22T12:22:01.451Z,51.24
2022-10-22T12:27:08.192Z,51.36
2022-10-22T12:32:14.932Z,51.77
2022-10-22T12:37:19.412Z,52.24
2022-10-22T12:42:23.939Z,52.98
2022-10-22T12:47:31.533Z,53.82
2022-10-22T12:52:34.929Z,54.06
2022-10-22T12:57:39.242Z,54.63
2022-10-22T13:02:45.581Z,56.39
2022-10-22T13:07:50.883Z,57.32
2022-10-22T13:12:58.181Z,57.86
2022-10-22T13:18:09.412Z,58.79
2022-10-22T13:23:20.947Z,59.55
2022-10-22T13:28:25.314Z,59.23
2022-10-22T13:33:34.906Z,60.56
2022-10-22T13:38:38.592Z,61.44
2022-10-22T13:43:41.958Z,61.76
2022-10-22T13:48:48.534Z,62.08
2022-10-22T13:53:54.072Z,62.54
2022-10-22T13:58:57.760Z,62.30
2022-10-22T14:04:03.169Z,62.69
2022-10-22T14:09:09.129Z,62.89
2022-10-22T14:14:14.428Z,62.88
2022-10-22T14:19:20.070Z,63.39
2022-10-22T14:24:26.897Z,63.08
2022-10-22T14:29:32.431Z,64.19
2022-10-22T14:34:37.507Z,64.71
2022-10-22T14:39:41.109Z,64.57
2022-10-22T14:44:44.470Z,65.03
2022-10-22T14:49:49.281Z,65.58
2022-10-22T14:54:53.777Z,65.84
2022-10-22T14:59:57.133Z,65.98
2022-10-22T15:05:01.944Z,66.43
2022-10-22T15:10:09.659Z,66.28
2022-10-22T15:15:13.373Z,66.72
2022-10-22T15:20:18.357Z,66.70
2022-10-22T15:25:21.714Z,66.97
2022-10-22T15:30:25.364Z,67.12
2022-10-22T15:35:30.280Z,66.78
2022-10-22T15:40:33.773Z,67.04
2022-10-22T15:45:37.440Z,67.08
2022-10-22T15:50:42.305Z,67.27
2022-10-22T15:55:50.238Z,67.12
2022-10-22T16:00:53.668Z,67.30
2022-10-22T16:05:58.801Z,67.80
2022-10-22T16:11:02.282Z,67.87
2022-10-22T16:16:08.143Z,68.02
2022-10-22T16:21:15.822Z,68.34
2022-10-22T16:26:20.522Z,68.50
2022-10-22T16:31:23.886Z,68.38
2022-10-22T16:36:28.794Z,69.13
2022-10-22T16:41:35.417Z,69.48
2022-10-22T16:46:39.115Z,69.39
2022-10-22T16:51:44.079Z,69.80
2022-10-22T16:56:47.437Z,70.17
2022-10-22T17:01:50.917Z,70.22
2022-10-22T17:06:55.765Z,70.74
2022-10-22T17:11:59.197Z,70.81
2022-10-22T17:17:02.564Z,70.55
2022-10-22T17:22:07.340Z,70.72
2022-10-22T17:27:12.050Z,71.11
2022-10-22T17:32:17.838Z,71.43
2022-10-22T17:37:23.008Z,71.27
2022-10-22T17:42:26.453Z,71.44
2022-10-22T17:47:30.081Z,71.13
2022-10-22T17:52:34.977Z,70.71
2022-10-22T17:57:39.485Z,71.08
2022-10-22T18:02:43.679Z,70.96
2022-10-22T18:07:48.841Z,71.33
2022-10-22T18:12:52.253Z,71.51
2022-10-22T18:17:55.646Z,71.84
2022-10-22T18:23:00.706Z,71.85
2022-10-22T18:28:04.144Z,72.04
2022-10-22T18:33:07.976Z,72.21
2022-10-22T18:38:12.897Z,72.28
2022-10-22T18:43:16.808Z,71.54
2022-10-22T18:48:22.996Z,72.02
2022-10-22T18:53:28.868Z,72.14
2022-10-22T18:58:32.638Z,71.92
2022-10-22T19:03:36.136Z,71.78
2022-10-22T19:08:41.227Z,71.61
2022-10-22T19:13:44.778Z,70.99
2022-10-22T19:18:48.177Z,70.44
2022-10-22T19:23:53.081Z,70.60
2022-10-22T19:28:57.101Z,70.80
2022-10-22T19:34:01.731Z,70.53
2022-10-22T19:39:07.791Z,70.48
2022-10-22T19:44:11.614Z,70.48
2022-10-22T19:49:18.847Z,70.70
2022-10-22T19:54:26.832Z,70.64
2022-10-22T19:59:32.128Z,70.94
2022-10-22T20:04:37.426Z,70.44
2022-10-22T20:09:42.491Z,70.20
2022-10-22T20:14:45.863Z,70.68
2022-10-22T20:19:49.227Z,70.36
2022-10-22T20:24:54.415Z,69.91
2022-10-22T20:29:57.789Z,69.19
2022-10-22T20:35:01.514Z,68.92
2022-10-22T20:40:09.050Z,68.81
2022-10-22T20:45:12.438Z,68.52
2022-10-22T20:50:16.142Z,67.81
2022-10-22T20:55:21.840Z,67.74
2022-10-22T21:00:25.248Z,67.69
2022-10-22T21:05:28.693Z,67.21
2022-10-22T21:10:33.552Z,67.16
2022-10-22T21:15:36.930Z,67.42
2022-10-22T21:20:41.032Z,67.14
2022-10-22T21:25:55.716Z,67.44
2022-10-22T21:30:59.555Z,67.05
2022-10-22T21:36:02.945Z,67.17
2022-10-22T21:41:09.449Z,66.79
2022-10-22T21:46:14.713Z,66.82
2022-10-22T21:51:19.989Z,66.74
2022-10-22T21:56:27.999Z,66.54
2022-10-22T22:01:31.722Z,66.59
2022-10-22T22:06:35.271Z,66.66
2022-10-22T22:11:40.178Z,66.83
2022-10-22T22:16:43.556Z,66.68
2022-10-22T22:21:47.205Z,67.11
2022-10-22T22:26:52.021Z,67.32
2022-10-22T22:31:55.549Z,66.68
2022-10-22T22:36:59.205Z,64.94
2022-10-22T22:42:03.984Z,64.04
2022-10-22T22:47:07.447Z,63.19
2022-10-22T22:52:10.995Z,62.93
2022-10-22T22:57:16.932Z,62.22
2022-10-22T23:02:20.332Z,62.50
2022-10-22T23:07:23.811Z,63.25
2022-10-22T23:12:29.027Z,64.10
2022-10-22T23:17:32.708Z,65.03
2022-10-22T23:22:36.124Z,65.34
2022-10-22T23:27:41.502Z,64.54
2022-10-22T23:32:45.393Z,63.22
2022-10-22T23:37:48.776Z,64.15
2022-10-22T23:42:53.824Z,65.45
2022-10-22T23:47:57.547Z,66.02
2022-10-22T23:53:00.955Z,65.49
2022-10-22T23:58:06.041Z,66.07
